createdAt,value
2023-01-01T00:00:22.655Z,11.17
2023-01-01T00:02:50.007Z,11.05
2023-01-01T00:05:17.384Z,11.08
2023-01-01T00:07:44.788Z,11.14
2023-01-01T00:10:30.837Z,11.25
2023-01-01T00:12:58.587Z,11.12
2023-01-01T00:15:27.641Z,11.09
2023-01-01T00:17:55.620Z,11.07
2023-01-01T00:20:23.465Z,11.21
2023-01-01T00:22:55.556Z,11.34
2023-01-01T00:25:24.295Z,11.27
2023-01-01T00:27:51.778Z,11.09
2023-01-01T00:30:19.378Z,11.05
2023-01-01T00:32:55.342Z,11.10
2023-01-01T00:35:26.874Z,11.10
2023-01-01T00:37:55.415Z,11.08
2023-01-01T00:40:23.144Z,11.04
2023-01-01T00:42:50.555Z,11.11
2023-01-01T00:45:21.944Z,10.96
2023-01-01T00:47:53.868Z,10.87
2023-01-01T00:50:21.948Z,10.77
2023-01-01T00:52:49.776Z,10.82
2023-01-01T00:55:17.170Z,10.83
2023-01-01T00:57:44.962Z,11.04
2023-01-01T01:00:13.599Z,11.04
2023-01-01T01:02:41.752Z,11.03
2023-01-01T01:05:09.507Z,10.98
2023-01-01T01:07:37.593Z,10.97
2023-01-01T01:10:05.470Z,11.09
2023-01-01T01:12:34.319Z,11.14
2023-01-01T01:15:01.898Z,11.05
2023-01-01T01:17:31.143Z,11.02
2023-01-01T01:19:58.451Z,11.14
2023-01-01T01:22:28.558Z,11.15
2023-01-01T01:24:56.826Z,11.03
2023-01-01T01:27:24.737Z,10.99
2023-01-01T01:29:52.299Z,11.19
2023-01-01T01:32:20.509Z,11.22
2023-01-01T01:34:47.890Z,11.24
2023-01-01T01:37:15.180Z,11.11
2023-01-01T01:39:42.914Z,11.13
2023-01-01T01:42:17.963Z,10.93
2023-01-01T01:44:46.195Z,10.98
2023-01-01T01:47:18.658Z,11.00
2023-01-01T01:49:47.392Z,10.95
2023-01-01T01:52:15.023Z,10.95
2023-01-01T01:54:42.683Z,10.99
2023-01-01T01:57:14.890Z,10.96
2023-01-01T01:59:44.138Z,10.97
2023-01-01T02:02:35.395Z,10.98
2023-01-01T02:05:03.775Z,11.02
2023-01-01T02:07:31.874Z,11.13
2023-01-01T02:09:59.682Z,11.15
2023-01-01T02:12:27.848Z,11.14
2023-01-01T02:14:55.540Z,11.07
2023-01-01T02:17:39.324Z,11.06
2023-01-01T02:20:12.751Z,10.91
2023-01-01T02:23:04.249Z,11.02
2023-01-01T02:25:40.998Z,11.05
2023-01-01T02:28:26.754Z,11.11
2023-01-01T02:30:55.222Z,11.08
2023-01-01T02:33:24.801Z,11.10
2023-01-01T02:35:56.300Z,11.08
2023-01-01T02:38:28.171Z,11.13
2023-01-01T02:40:59.632Z,11.21
2023-01-01T02:43:26.997Z,11.25
2023-01-01T02:45:54.602Z,11.20
2023-01-01T02:48:37.246Z,11.24
2023-01-01T02:51:09.864Z,11.05
2023-01-01T02:53:41.774Z,11.00
2023-01-01T02:56:18.854Z,11.04
2023-01-01T02:59:18.521Z,11.08
2023-01-01T03:01:57.041Z,10.92
2023-01-01T03:04:33.739Z,10.85
2023-01-01T03:07:06.967Z,10.81
2023-01-01T03:09:40.416Z,10.92
2023-01-01T03:12:39.717Z,11.03
2023-01-01T03:15:28.217Z,11.19
2023-01-01T03:18:00.443Z,11.16
2023-01-01T03:20:30.074Z,11.18
2023-01-01T03:23:01.539Z,11.08
2023-01-01T03:25:31.866Z,11.11
2023-01-01T03:28:02.663Z,11.06
2023-01-01T03:30:32.419Z,11.14
2023-01-01T03:33:08.029Z,10.92
2023-01-01T03:36:01.654Z,11.05
2023-01-01T03:38:35.048Z,11.09
2023-01-01T03:41:05.277Z,11.03
2023-01-01T03:43:42.009Z,11.09
2023-01-01T03:46:12.540Z,11.11
2023-01-01T03:49:03.722Z,11.01
2023-01-01T03:51:34.533Z,11.13
2023-01-01T03:54:06.239Z,11.14
2023-01-01T03:56:53.855Z,11.15
2023-01-01T03:59:27.323Z,11.22
2023-01-01T04:01:58.301Z,11.10
2023-01-01T04:04:27.072Z,10.95
2023-01-01T04:06:55.242Z,11.04
2023-01-01T04:09:25.905Z,11.12
2023-01-01T04:12:04.322Z,11.16
2023-01-01T04:14:35.946Z,11.23
2023-01-01T04:17:04.832Z,11.02
2023-01-01T04:19:32.642Z,10.96
2023-01-01T04:22:00.500Z,10.94
2023-01-01T04:24:28.545Z,11.09
2023-01-01T04:26:56.276Z,11.18
2023-01-01T04:29:24.330Z,11.19
2023-01-01T04:31:51.751Z,11.09
2023-01-01T04:34:19.208Z,11.03
2023-01-01T04:36:46.701Z,11.14
2023-01-01T04:39:14.007Z,11.15
2023-01-01T04:41:41.748Z,11.11
2023-01-01T04:44:09.064Z,11.01
2023-01-01T04:46:36.715Z,11.02
2023-01-01T04:49:04.149Z,10.90
2023-01-01T04:51:31.511Z,10.88
2023-01-01T04:53:59.343Z,10.94
2023-01-01T04:56:26.779Z,11.08
2023-01-01T04:58:55.571Z,11.16
2023-01-01T05:01:31.948Z,11.26
2023-01-01T05:03:59.981Z,11.25
2023-01-01T05:06:28.912Z,11.14
2023-01-01T05:08:56.749Z,11.09
2023-01-01T05:11:25.394Z,10.95
2023-01-01T05:13:54.107Z,11.00
2023-01-01T05:16:22.901Z,11.03
2023-01-01T05:18:50.989Z,11.10
2023-01-01T05:21:23.252Z,11.02
2023-01-01T05:23:54.862Z,11.01
2023-01-01T05:26:24.430Z,11.04
2023-01-01T05:28:52.203Z,11.04
2023-01-01T05:31:20.787Z,11.21
2023-01-01T05:33:49.057Z,11.23
2023-01-01T05:36:18.241Z,11.09
2023-01-01T05:38:45.986Z,10.98
2023-01-01T05:41:14.265Z,10.90
2023-01-01T05:43:41.690Z,10.75
2023-01-01T05:46:14.382Z,10.77
2023-01-01T05:48:42.035Z,10.86
2023-01-01T05:51:11.096Z,10.69
2023-01-01T05:53:39.007Z,10.77
2023-01-01T05:56:07.011Z,10.86
2023-01-01T05:58:35.255Z,10.92
2023-01-01T06:01:13.156Z,10.93
2023-01-01T06:03:41.248Z,10.94
2023-01-01T06:06:12.513Z,10.85
2023-01-01T06:08:40.243Z,10.74
2023-01-01T06:11:10.949Z,10.61
2023-01-01T06:13:38.615Z,10.57
2023-01-01T06:16:06.230Z,10.63
2023-01-01T06:18:34.913Z,10.65
2023-01-01T06:21:05.575Z,10.65
2023-01-01T06:23:33.014Z,10.73
2023-01-01T06:26:29.893Z,10.79
2023-01-01T06:28:57.752Z,10.74
2023-01-01T06:31:25.083Z,10.74
2023-01-01T06:33:52.693Z,10.81
2023-01-01T06:36:21.547Z,10.79
2023-01-01T06:38:51.859Z,10.84
2023-01-01T06:41:20.849Z,10.87
2023-01-01T06:43:49.003Z,10.83
2023-01-01T06:46:17.841Z,10.82
2023-01-01T06:48:45.850Z,10.78
2023-01-01T06:51:15.419Z,10.84
2023-01-01T06:53:43.064Z,10.75
2023-01-01T06:56:10.833Z,10.81
2023-01-01T06:58:38.503Z,10.79
2023-01-01T07:01:26.483Z,10.69
2023-01-01T07:03:58.699Z,10.81
2023-01-01T07:06:26.780Z,10.88
2023-01-01T07:08:54.717Z,10.88
2023-01-01T07:11:22.138Z,10.89
2023-01-01T07:13:49.464Z,10.85
2023-01-01T07:16:17.583Z,10.94
2023-01-01T07:18:46.197Z,11.06
2023-01-01T07:21:29.249Z,11.10
2023-01-01T07:24:01.574Z,11.05
2023-01-01T07:26:30.100Z,11.12
2023-01-01T07:29:04.670Z,11.04
2023-01-01T07:31:34.813Z,10.96
2023-01-01T07:34:02.221Z,11.11
2023-01-01T07:36:29.666Z,11.30
2023-01-01T07:38:57.113Z,11.43
2023-01-01T07:41:24.567Z,11.47
2023-01-01T07:43:52.526Z,11.47
2023-01-01T07:46:20.189Z,11.54
2023-01-01T07:48:47.774Z,11.75
2023-01-01T07:51:15.519Z,11.73
2023-01-01T07:53:42.908Z,11.62
2023-01-01T07:56:10.463Z,11.58
2023-01-01T07:58:42.336Z,11.66
2023-01-01T08:01:11.142Z,11.64
2023-01-01T08:03:39.103Z,11.68
2023-01-01T08:06:08.067Z,11.47
2023-01-01T08:08:35.881Z,11.53
2023-01-01T08:11:04.285Z,11.57
2023-01-01T08:13:32.257Z,11.49
2023-01-01T08:16:00.382Z,11.24
2023-01-01T08:18:27.829Z,11.19
2023-01-01T08:20:57.509Z,11.39
2023-01-01T08:23:25.046Z,11.41
2023-01-01T08:25:52.400Z,11.25
2023-01-01T08:28:19.855Z,11.33
2023-01-01T08:30:47.305Z,11.44
2023-01-01T08:33:14.764Z,11.52
2023-01-01T08:35:42.778Z,11.63
2023-01-01T08:38:11.389Z,11.76
2023-01-01T08:40:39.543Z,11.89
2023-01-01T08:43:06.864Z,11.92
2023-01-01T08:45:34.928Z,11.64
2023-01-01T08:48:02.367Z,11.94
2023-01-01T08:50:29.688Z,11.85
2023-01-01T08:52:59.874Z,11.75
2023-01-01T08:55:27.322Z,11.95
2023-01-01T08:57:55.059Z,11.90
2023-01-01T09:00:22.684Z,11.96
2023-01-01T09:02:50.176Z,11.90
2023-01-01T09:05:18.108Z,11.90
2023-01-01T09:07:45.779Z,11.79
2023-01-01T09:10:13.299Z,11.94
2023-01-01T09:12:41.220Z,11.80
2023-01-01T09:15:13.739Z,11.90
2023-01-01T09:17:41.097Z,11.97
2023-01-01T09:20:08.794Z,11.96
2023-01-01T09:22:36.530Z,12.03
2023-01-01T09:25:04.454Z,12.19
2023-01-01T09:27:31.823Z,12.38
2023-01-01T09:29:59.998Z,12.43
2023-01-01T09:32:27.548Z,12.59
2023-01-01T09:34:57.093Z,12.52
2023-01-01T09:37:24.505Z,12.60
2023-01-01T09:39:52.822Z,12.75
2023-01-01T09:42:43.153Z,12.15
2023-01-01T09:45:28.069Z,11.94
2023-01-01T09:47:58.359Z,12.12
2023-01-01T09:50:46.471Z,12.21
2023-01-01T09:53:14.642Z,12.48
2023-01-01T09:56:11.870Z,12.16
2023-01-01T09:58:39.717Z,12.20
2023-01-01T10:01:17.509Z,12.42
2023-01-01T10:03:57.492Z,12.73
2023-01-01T10:06:29.213Z,12.62
2023-01-01T10:09:01.218Z,12.92
2023-01-01T10:11:31.789Z,12.83
2023-01-01T10:14:01.700Z,12.58
2023-01-01T10:16:35.772Z,12.16
2023-01-01T10:19:08.076Z,12.67
2023-01-01T10:21:43.510Z,12.43
2023-01-01T10:24:23.287Z,12.99
2023-01-01T10:26:53.477Z,13.12
2023-01-01T10:29:29.943Z,12.93
2023-01-01T10:31:58.365Z,13.39
2023-01-01T10:34:32.435Z,13.35
2023-01-01T10:37:00.806Z,13.10
2023-01-01T10:39:28.865Z,13.11
2023-01-01T10:41:57.532Z,12.97
2023-01-01T10:44:32.612Z,12.97
2023-01-01T10:47:02.967Z,13.07
2023-01-01T10:49:30.869Z,12.83
2023-01-01T10:51:59.534Z,13.00
2023-01-01T10:54:40.164Z,13.17
2023-01-01T10:57:19.158Z,13.06
2023-01-01T10:59:53.564Z,13.24
2023-01-01T11:02:23.307Z,13.11
2023-01-01T11:04:52.036Z,13.20
2023-01-01T11:07:25.898Z,13.24
2023-01-01T11:10:03.091Z,12.97
2023-01-01T11:13:04.264Z,13.40
2023-01-01T11:15:35.583Z,13.15
2023-01-01T11:18:06.695Z,13.29
2023-01-01T11:20:34.811Z,13.55
2023-01-01T11:23:17.648Z,13.53
2023-01-01T11:25:56.897Z,13.27
2023-01-01T11:28:24.755Z,13.38
2023-01-01T11:31:10.988Z,13.49
2023-01-01T11:33:52.821Z,13.41
2023-01-01T11:36:21.831Z,13.65
2023-01-01T11:38:51.678Z,13.16
2023-01-01T11:41:19.065Z,13.27
2023-01-01T11:43:47.990Z,13.35
2023-01-01T11:46:22.438Z,13.21
2023-01-01T11:48:50.030Z,12.79
2023-01-01T11:51:29.605Z,12.56
2023-01-01T11:54:29.197Z,12.77
2023-01-01T11:57:07.689Z,13.15
2023-01-01T11:59:46.527Z,13.02
2023-01-01T12:02:17.210Z,12.81
2023-01-01T12:04:49.273Z,12.83
2023-01-01T12:07:25.808Z,12.88
2023-01-01T12:10:03.159Z,12.77
2023-01-01T12:12:46.860Z,12.64
2023-01-01T12:15:20.303Z,12.72
2023-01-01T12:17:51.996Z,12.88
2023-01-01T12:20:22.871Z,12.83
2023-01-01T12:22:50.411Z,12.75
2023-01-01T12:25:19.992Z,13.06
2023-01-01T12:27:47.545Z,13.44
2023-01-01T12:30:25.335Z,12.64
2023-01-01T12:33:31.098Z,12.63
2023-01-01T12:36:07.732Z,12.81
2023-01-01T12:38:35.599Z,12.89
2023-01-01T12:41:09.294Z,13.05
2023-01-01T12:43:43.567Z,13.20
2023-01-01T12:46:11.482Z,13.29
2023-01-01T12:48:57.815Z,13.24
2023-01-01T12:51:37.278Z,13.21
2023-01-01T12:54:42.912Z,12.84
2023-01-01T12:57:13.087Z,12.30
2023-01-01T12:59:44.347Z,12.46
2023-01-01T13:02:19.498Z,12.79
2023-01-01T13:04:48.011Z,12.84
2023-01-01T13:07:19.103Z,12.86
2023-01-01T13:09:48.393Z,12.60
2023-01-01T13:12:17.218Z,12.60
2023-01-01T13:14:45.675Z,12.83
2023-01-01T13:17:22.303Z,12.65
2023-01-01T13:19:54.936Z,12.67
2023-01-01T13:22:28.230Z,12.61
2023-01-01T13:25:16.881Z,12.77
2023-01-01T13:27:56.791Z,12.56
2023-01-01T13:30:38.029Z,12.78
2023-01-01T13:33:26.167Z,12.60
2023-01-01T13:36:13.024Z,12.58
2023-01-01T13:38:50.005Z,12.64
2023-01-01T13:41:26.471Z,12.85
2023-01-01T13:44:10.544Z,12.70
2023-01-01T13:46:44.616Z,12.19
2023-01-01T13:49:30.593Z,12.23
2023-01-01T13:52:07.577Z,11.93
2023-01-01T13:54:40.078Z,12.09
2023-01-01T13:57:07.424Z,12.20
2023-01-01T13:59:37.803Z,12.30
2023-01-01T14:02:24.602Z,12.29
2023-01-01T14:04:59.561Z,12.54
2023-01-01T14:07:52.842Z,12.50
2023-01-01T14:10:23.547Z,12.54
2023-01-01T14:12:52.111Z,12.62
2023-01-01T14:15:25.480Z,12.44
2023-01-01T14:17:53.975Z,12.25
2023-01-01T14:20:23.113Z,12.33
2023-01-01T14:22:51.419Z,12.50
2023-01-01T14:25:25.251Z,12.44
2023-01-01T14:27:54.445Z,12.47
2023-01-01T14:30:21.971Z,12.47
2023-01-01T14:32:56.470Z,12.62
2023-01-01T14:35:23.886Z,12.39
2023-01-01T14:37:51.535Z,12.53
2023-01-01T14:40:33.866Z,12.47
2023-01-01T14:43:05.002Z,11.99
2023-01-01T14:45:34.544Z,11.95
2023-01-01T14:48:02.092Z,12.04
2023-01-01T14:50:31.258Z,12.19
2023-01-01T14:53:03.128Z,12.26
2023-01-01T14:55:32.996Z,12.12
2023-01-01T14:58:01.007Z,12.16
2023-01-01T15:00:30.077Z,12.16
2023-01-01T15:03:12.136Z,12.07
2023-01-01T15:05:40.573Z,12.18
2023-01-01T15:08:18.664Z,12.25
2023-01-01T15:10:46.704Z,12.20
2023-01-01T15:13:19.662Z,12.22
2023-01-01T15:15:49.698Z,12.22
2023-01-01T15:18:35.742Z,12.20
2023-01-01T15:21:10.380Z,12.27
2023-01-01T15:23:38.379Z,11.92
2023-01-01T15:26:10.419Z,11.90
2023-01-01T15:28:38.547Z,12.00
2023-01-01T15:31:05.940Z,11.79
2023-01-01T15:33:33.440Z,11.83
2023-01-01T15:36:03.982Z,11.83
2023-01-01T15:38:36.925Z,11.90
2023-01-01T15:41:22.902Z,11.96
2023-01-01T15:43:50.904Z,12.00
2023-01-01T15:46:26.117Z,11.59
2023-01-01T15:48:57.199Z,11.88
2023-01-01T15:51:26.158Z,11.90
2023-01-01T15:53:58.658Z,11.84
2023-01-01T15:56:31.039Z,11.83
2023-01-01T15:59:06.837Z,11.88
2023-01-01T16:01:37.975Z,11.84
2023-01-01T16:04:10.299Z,11.99
2023-01-01T16:06:44.992Z,11.96
2023-01-01T16:09:16.470Z,11.91
2023-01-01T16:11:44.292Z,11.97
2023-01-01T16:14:11.720Z,11.78
2023-01-01T16:16:40.532Z,11.78
2023-01-01T16:19:14.246Z,11.60
2023-01-01T16:21:41.741Z,11.64
2023-01-01T16:24:18.691Z,11.55
2023-01-01T16:26:47.290Z,11.62
2023-01-01T16:29:15.133Z,11.71
2023-01-01T16:31:43.494Z,11.74
2023-01-01T16:34:13.352Z,11.77
2023-01-01T16:36:42.033Z,11.79
2023-01-01T16:39:10.438Z,11.74
2023-01-01T16:41:40.089Z,11.83
2023-01-01T16:44:09.782Z,11.52
2023-01-01T16:46:37.340Z,11.61
2023-01-01T16:49:05.293Z,11.80
2023-01-01T16:51:34.740Z,11.92
2023-01-01T16:54:02.606Z,11.77
2023-01-01T16:56:30.123Z,11.75
2023-01-01T16:59:02.597Z,11.61
2023-01-01T17:01:31.182Z,11.54
2023-01-01T17:03:59.724Z,11.54
2023-01-01T17:06:27.151Z,11.70
2023-01-01T17:08:55.104Z,11.58
2023-01-01T17:11:25.058Z,11.74
2023-01-01T17:13:53.065Z,11.61
2023-01-01T17:16:26.944Z,11.64
2023-01-01T17:21:45.884Z,11.65
2023-01-01T17:24:14.319Z,11.51
2023-01-01T17:26:42.047Z,11.42
2023-01-01T17:29:09.921Z,11.53
2023-01-01T17:31:38.362Z,11.38
2023-01-01T17:34:05.759Z,11.38
2023-01-01T17:36:33.652Z,11.32
2023-01-01T17:39:01.043Z,11.47
2023-01-01T17:41:28.369Z,11.50
2023-01-01T17:43:56.456Z,11.62
2023-01-01T17:46:33.988Z,11.57
2023-01-01T17:49:01.564Z,11.73
2023-01-01T17:51:29.472Z,11.74
2023-01-01T17:53:57.451Z,11.76
2023-01-01T17:56:25.132Z,11.58
2023-01-01T17:58:53.981Z,11.41
2023-01-01T18:01:21.859Z,11.35
2023-01-01T18:03:51.223Z,11.56
2023-01-01T18:06:18.908Z,11.64
2023-01-01T18:08:46.387Z,11.65
2023-01-01T18:11:14.034Z,11.66
2023-01-01T18:13:41.396Z,11.71
2023-01-01T18:16:10.182Z,11.69
2023-01-01T18:18:38.808Z,11.55
2023-01-01T18:21:07.281Z,11.63
2023-01-01T18:23:35.198Z,11.56
2023-01-01T18:26:04.041Z,11.60
2023-01-01T18:28:32.194Z,11.67
2023-01-01T18:31:12.235Z,11.55
2023-01-01T18:33:40.187Z,11.55
2023-01-01T18:36:12.131Z,11.30
2023-01-01T18:38:41.532Z,11.46
2023-01-01T18:41:23.624Z,11.56
2023-01-01T18:43:51.712Z,11.44
2023-01-01T18:46:19.946Z,11.39
2023-01-01T18:48:47.383Z,11.49
2023-01-01T18:51:18.657Z,11.40
2023-01-01T18:53:46.456Z,11.40
2023-01-01T18:56:14.785Z,11.46
2023-01-01T18:58:46.875Z,11.57
2023-01-01T19:01:18.609Z,11.65
2023-01-01T19:03:48.693Z,11.71
2023-01-01T19:06:25.533Z,11.52
2023-01-01T19:09:16.260Z,11.65
2023-01-01T19:11:44.556Z,11.75
2023-01-01T19:14:23.075Z,11.75
2023-01-01T19:16:51.861Z,11.65
2023-01-01T19:19:24.083Z,11.57
2023-01-01T19:21:57.523Z,11.54
2023-01-01T19:24:27.384Z,11.52
2023-01-01T19:27:18.120Z,11.50
2023-01-01T19:29:46.319Z,11.52
2023-01-01T19:32:13.708Z,11.60
2023-01-01T19:34:41.705Z,11.55
2023-01-01T19:37:09.866Z,11.33
2023-01-01T19:39:38.028Z,11.28
2023-01-01T19:42:07.146Z,11.30
2023-01-01T19:44:35.725Z,11.27
2023-01-01T19:47:07.810Z,11.41
2023-01-01T19:49:35.190Z,11.35
2023-01-01T19:52:03.778Z,11.37
2023-01-01T19:54:31.222Z,11.43
2023-01-01T19:56:58.781Z,11.48
2023-01-01T19:59:33.084Z,11.30
2023-01-01T20:04:50.436Z,11.29
2023-01-01T20:07:18.383Z,11.30
2023-01-01T20:09:45.830Z,11.31
2023-01-01T20:12:13.612Z,11.36
2023-01-01T20:14:41.715Z,11.36
2023-01-01T20:17:09.177Z,11.30
2023-01-01T20:19:36.741Z,11.43
2023-01-01T20:22:17.711Z,11.35
2023-01-01T20:24:45.237Z,11.49
2023-01-01T20:27:13.039Z,11.40
2023-01-01T20:29:40.482Z,11.60
2023-01-01T20:32:15.450Z,11.59
2023-01-01T20:34:43.629Z,11.41
2023-01-01T20:37:29.569Z,11.44
2023-01-01T20:39:56.989Z,11.51
2023-01-01T20:42:24.825Z,11.48
2023-01-01T20:44:52.216Z,11.53
2023-01-01T20:47:19.812Z,11.59
2023-01-01T20:49:47.637Z,11.63
2023-01-01T20:52:16.264Z,11.62
2023-01-01T20:54:43.916Z,11.65
2023-01-01T20:57:11.589Z,11.78
2023-01-01T20:59:39.338Z,11.76
2023-01-01T21:02:11.066Z,11.75
2023-01-01T21:04:39.686Z,11.63
2023-01-01T21:07:12.262Z,11.55
2023-01-01T21:09:41.288Z,11.57
2023-01-01T21:12:09.384Z,11.51
2023-01-01T21:14:37.030Z,11.59
2023-01-01T21:17:22.161Z,11.74
2023-01-01T21:19:50.700Z,11.68
2023-01-01T21:22:18.314Z,11.67
2023-01-01T21:24:51.566Z,11.63
2023-01-01T21:27:27.381Z,11.59
2023-01-01T21:29:57.634Z,11.55
2023-01-01T21:32:36.185Z,11.47
2023-01-01T21:35:14.809Z,11.51
2023-01-01T21:37:48.038Z,11.39
2023-01-01T21:40:21.562Z,11.47
2023-01-01T21:42:49.584Z,11.37
2023-01-01T21:45:19.110Z,11.42
2023-01-01T21:47:46.946Z,11.44
2023-01-01T21:50:24.367Z,11.46
2023-01-01T21:52:57.369Z,11.57
2023-01-01T21:55:50.351Z,11.60
2023-01-01T21:58:37.456Z,11.35
2023-01-01T22:01:31.228Z,11.27
2023-01-01T22:04:02.441Z,11.12
2023-01-01T22:06:41.851Z,11.02
2023-01-01T22:09:12.803Z,11.10
2023-01-01T22:11:40.292Z,11.12
2023-01-01T22:14:13.010Z,11.09
2023-01-01T22:16:41.067Z,11.09
2023-01-01T22:19:19.652Z,11.07
2023-01-01T22:21:48.237Z,10.97
2023-01-01T22:24:27.576Z,11.12
2023-01-01T22:26:56.307Z,11.23
2023-01-01T22:29:26.909Z,11.33
2023-01-01T22:31:59.281Z,11.34
2023-01-01T22:34:27.185Z,11.49
2023-01-01T22:36:54.884Z,11.66
2023-01-01T22:39:28.422Z,11.67
2023-01-01T22:41:57.065Z,11.59
2023-01-01T22:44:26.469Z,11.57
2023-01-01T22:46:58.651Z,11.57
2023-01-01T22:49:38.341Z,11.56
2023-01-01T22:52:07.722Z,11.50
2023-01-01T22:54:35.067Z,11.46
2023-01-01T22:57:02.964Z,11.47
2023-01-01T22:59:31.092Z,11.40
2023-01-01T23:02:00.039Z,11.35
2023-01-01T23:04:27.777Z,11.30
2023-01-01T23:06:55.185Z,11.20
2023-01-01T23:09:24.106Z,11.14
2023-01-01T23:11:53.318Z,11.25
2023-01-01T23:14:39.508Z,11.25
2023-01-01T23:17:07.633Z,11.28
2023-01-01T23:19:35.435Z,11.27
2023-01-01T23:22:03.510Z,11.32
2023-01-01T23:24:31.576Z,11.27
2023-01-01T23:27:00.563Z,11.26
2023-01-01T23:29:32.481Z,11.32
2023-01-01T23:32:00.921Z,11.19
2023-01-01T23:34:28.760Z,11.29
2023-01-01T23:36:56.494Z,11.45
2023-01-01T23:39:23.851Z,11.42
2023-01-01T23:41:51.898Z,11.42
2023-01-01T23:44:19.854Z,11.57
2023-01-01T23:46:47.380Z,11.57
2023-01-01T23:49:15.402Z,11.40
2023-01-01T23:51:43.428Z,11.35
2023-01-01T23:54:11.557Z,11.28
2023-01-01T23:56:38.913Z,11.11
2023-01-01T23:59:07.197Z,11.01
